createdAt,value
2023-05-04T00:00:44.202Z,2588.00
2023-05-04T00:01:44.156Z,2575.00
2023-05-04T00:02:44.272Z,2585.00
2023-05-04T00:03:44.321Z,2572.00
2023-05-04T00:04:44.185Z,2570.00
2023-05-04T00:05:44.206Z,2570.00
2023-05-04T00:06:44.227Z,2571.00
2023-05-04T00:07:44.271Z,2563.00
2023-05-04T00:08:44.270Z,2553.00
2023-05-04T00:09:44.291Z,2557.00
2023-05-04T00:10:44.288Z,2559.00
2023-05-04T00:11:44.325Z,2558.00
2023-05-04T00:12:44.434Z,2543.00
2023-05-04T00:13:44.354Z,2538.00
2023-05-04T00:14:44.431Z,2546.00
2023-05-04T00:15:44.441Z,2535.00
2023-05-04T00:16:44.530Z,2555.00
2023-05-04T00:17:44.474Z,2541.00
2023-05-04T00:18:44.451Z,2531.00
2023-05-04T00:19:44.450Z,2533.00
2023-05-04T00:20:44.489Z,2519.00
2023-05-04T00:21:44.504Z,2527.00
2023-05-04T00:22:44.454Z,2504.00
2023-05-04T00:23:44.474Z,2518.00
2023-05-04T00:24:44.510Z,2513.00
2023-05-04T00:25:44.505Z,2507.00
2023-05-04T00:26:44.516Z,2500.00
2023-05-04T00:27:44.495Z,2507.00
2023-05-04T00:28:44.524Z,2512.00
2023-05-04T00:29:44.511Z,2518.00
2023-05-04T00:30:44.558Z,2499.00
2023-05-04T00:31:44.587Z,2489.00
2023-05-04T00:32:44.611Z,2496.00
2023-05-04T00:33:44.566Z,2488.00
2023-05-04T00:34:44.587Z,2493.00
2023-05-04T00:35:44.601Z,2489.00
2023-05-04T00:36:44.623Z,2485.00
2023-05-04T00:37:44.638Z,2486.00
2023-05-04T00:38:44.641Z,2479.00
2023-05-04T00:39:44.679Z,2488.00
2023-05-04T00:40:44.700Z,2457.00
2023-05-04T00:41:44.748Z,2480.00
2023-05-04T00:42:44.758Z,2473.00
2023-05-04T00:43:44.781Z,2470.00
2023-05-04T00:44:44.753Z,2463.00
2023-05-04T00:45:44.780Z,2456.00
2023-05-04T00:46:45.245Z,2445.00
2023-05-04T00:47:44.856Z,2459.00
2023-05-04T00:48:44.793Z,2449.00
2023-05-04T00:49:44.828Z,2445.00
2023-05-04T00:50:44.865Z,2447.00
2023-05-04T00:51:44.852Z,2438.00
2023-05-04T00:52:44.869Z,2439.00
2023-05-04T00:53:44.861Z,2439.00
2023-05-04T00:54:44.868Z,2434.00
2023-05-04T00:55:44.872Z,2439.00
2023-05-04T00:56:44.919Z,2424.00
2023-05-04T00:57:44.969Z,2429.00
2023-05-04T00:58:44.934Z,2436.00
2023-05-04T00:59:44.945Z,2406.00
2023-05-04T01:00:45.007Z,2428.00
2023-05-04T01:01:44.982Z,2426.00
2023-05-04T01:02:45.038Z,2397.00
2023-05-04T01:03:45.059Z,2409.00
2023-05-04T01:04:45.018Z,2410.00
2023-05-04T01:05:45.017Z,2406.00
2023-05-04T01:06:45.734Z,2397.00
2023-05-04T01:07:45.066Z,2395.00
2023-05-04T01:08:45.065Z,2387.00
2023-05-04T01:09:45.086Z,2393.00
2023-05-04T01:10:45.119Z,2394.00
2023-05-04T01:11:45.122Z,2390.00
2023-05-04T01:12:45.170Z,2379.00
2023-05-04T01:13:45.173Z,2374.00
2023-05-04T01:14:45.138Z,2364.00
2023-05-04T01:15:45.161Z,2371.00
2023-05-04T01:16:45.237Z,2376.00
2023-05-04T01:17:45.206Z,2366.00
2023-05-04T01:18:45.209Z,2366.00
2023-05-04T01:19:45.239Z,2371.00
2023-05-04T01:20:45.264Z,2358.00
2023-05-04T01:21:45.246Z,2364.00
2023-05-04T01:22:45.279Z,2371.00
2023-05-04T01:23:45.284Z,2363.00
2023-05-04T01:24:45.328Z,2355.00
2023-05-04T01:25:45.331Z,2370.00
2023-05-04T01:26:45.356Z,2352.00
2023-05-04T01:27:45.422Z,2338.00
2023-05-04T01:28:45.362Z,2337.00
2023-05-04T01:29:45.394Z,2345.00
2023-05-04T01:30:45.443Z,2343.00
2023-05-04T01:31:45.432Z,2344.00
2023-05-04T01:32:45.448Z,2328.00
2023-05-04T01:33:45.450Z,2326.00
2023-05-04T01:34:45.462Z,2332.00
2023-05-04T01:35:45.471Z,2325.00
2023-05-04T01:36:45.747Z,2323.00
2023-05-04T01:37:45.517Z,2316.00
2023-05-04T01:38:45.569Z,2328.00
2023-05-04T01:39:45.576Z,2319.00
2023-05-04T01:40:45.578Z,2318.00
2023-05-04T01:41:45.624Z,2307.00
2023-05-04T01:42:45.846Z,2305.00
2023-05-04T01:43:45.624Z,2299.00
2023-05-04T01:44:45.657Z,2316.00
2023-05-04T01:45:45.698Z,2303.00
2023-05-04T01:46:45.745Z,2296.00
2023-05-04T01:47:45.848Z,2296.00
2023-05-04T01:48:45.782Z,2311.00
2023-05-04T01:49:45.796Z,2293.00
2023-05-04T01:50:45.900Z,2283.00
2023-05-04T01:51:45.845Z,2274.00
2023-05-04T01:52:45.906Z,2293.00
2023-05-04T01:53:45.923Z,2279.00
2023-05-04T01:54:45.935Z,2275.00
2023-05-04T01:55:45.953Z,2284.00
2023-05-04T01:56:45.996Z,2273.00
2023-05-04T01:57:45.984Z,2278.00
2023-05-04T01:58:46.018Z,2269.00
2023-05-04T01:59:46.036Z,2266.00
2023-05-04T02:00:46.059Z,2262.00
2023-05-04T02:01:46.099Z,2266.00
2023-05-04T02:02:46.176Z,2276.00
2023-05-04T02:03:46.154Z,2258.00
2023-05-04T02:04:46.125Z,2245.00
2023-05-04T02:05:46.173Z,2257.00
2023-05-04T02:06:46.251Z,2265.00
2023-05-04T02:07:46.180Z,2248.00
2023-05-04T02:08:46.193Z,2253.00
2023-05-04T02:09:46.196Z,2244.00
2023-05-04T02:10:46.204Z,2250.00
2023-05-04T02:11:46.247Z,2241.00
2023-05-04T02:12:46.410Z,2243.00
2023-05-04T02:13:46.253Z,2227.00
2023-05-04T02:14:46.337Z,2220.00
2023-05-04T02:15:46.373Z,2231.00
2023-05-04T02:16:46.344Z,2224.00
2023-05-04T02:17:46.553Z,2217.00
2023-05-04T02:18:46.346Z,2214.00
2023-05-04T02:19:46.364Z,2221.00
2023-05-04T02:20:46.436Z,2222.00
2023-05-04T02:21:46.435Z,2207.00
2023-05-04T02:22:46.460Z,2205.00
2023-05-04T02:23:46.489Z,2208.00
2023-05-04T02:24:46.492Z,2205.00
2023-05-04T02:25:46.478Z,2209.00
2023-05-04T02:26:46.495Z,2210.00
2023-05-04T02:27:46.510Z,2203.00
2023-05-04T02:28:46.540Z,2209.00
2023-05-04T02:29:46.543Z,2193.00
2023-05-04T02:30:46.543Z,2202.00
2023-05-04T02:31:47.365Z,2199.00
2023-05-04T02:32:46.621Z,2198.00
2023-05-04T02:33:46.635Z,2188.00
2023-05-04T02:34:46.592Z,2195.00
2023-05-04T02:35:46.608Z,2191.00
2023-05-04T02:36:46.588Z,2189.00
2023-05-04T02:37:46.609Z,2177.00
2023-05-04T02:38:46.675Z,2185.00
2023-05-04T02:39:46.663Z,2176.00
2023-05-04T02:40:46.647Z,2173.00
2023-05-04T02:41:46.652Z,2180.00
2023-05-04T02:42:46.694Z,2168.00
2023-05-04T02:43:46.657Z,2174.00
2023-05-04T02:44:46.700Z,2162.00
2023-05-04T02:45:46.708Z,2162.00
2023-05-04T02:46:46.707Z,2163.00
2023-05-04T02:47:46.784Z,2158.00
2023-05-04T02:48:46.712Z,2158.00
2023-05-04T02:49:46.816Z,2154.00
2023-05-04T02:50:46.787Z,2153.00
2023-05-04T02:51:47.323Z,2163.00
2023-05-04T02:52:46.789Z,2149.00
2023-05-04T02:53:46.820Z,2158.00
2023-05-04T02:54:46.811Z,2164.00
2023-05-04T02:55:46.798Z,2143.00
2023-05-04T02:56:46.855Z,2149.00
2023-05-04T02:57:47.791Z,2128.00
2023-05-04T02:58:46.867Z,2132.00
2023-05-04T02:59:46.878Z,2117.00
2023-05-04T03:00:46.837Z,2135.00
2023-05-04T03:01:46.942Z,2128.00
2023-05-04T03:02:46.946Z,2139.00
2023-05-04T03:03:46.931Z,2125.00
2023-05-04T03:04:46.961Z,2106.00
2023-05-04T03:05:46.970Z,2135.00
2023-05-04T03:06:47.050Z,2115.00
2023-05-04T03:07:47.011Z,2129.00
2023-05-04T03:08:47.076Z,2118.00
2023-05-04T03:09:48.070Z,2114.00
2023-05-04T03:10:47.075Z,2108.00
2023-05-04T03:11:47.060Z,2112.00
2023-05-04T03:12:47.147Z,2107.00
2023-05-04T03:13:47.115Z,2109.00
2023-05-04T03:14:47.147Z,2107.00
2023-05-04T03:15:47.156Z,2109.00
2023-05-04T03:16:47.276Z,2097.00
2023-05-04T03:17:47.219Z,2110.00
2023-05-04T03:18:57.967Z,2100.00
2023-05-04T03:19:47.247Z,2102.00
2023-05-04T03:20:47.192Z,2105.00
2023-05-04T03:21:47.229Z,2106.00
2023-05-04T03:22:47.194Z,2109.00
2023-05-04T03:23:47.202Z,2101.00
2023-05-04T03:24:47.144Z,2104.00
2023-05-04T03:25:47.177Z,2106.00
2023-05-04T03:26:47.199Z,2095.00
2023-05-04T03:27:47.170Z,2092.00
2023-05-04T03:28:47.146Z,2088.00
2023-05-04T03:29:47.155Z,2088.00
2023-05-04T03:30:47.126Z,2086.00
2023-05-04T03:31:47.134Z,2079.00
2023-05-04T03:32:47.128Z,2069.00
2023-05-04T03:33:47.086Z,2073.00
2023-05-04T03:34:47.104Z,2070.00
2023-05-04T03:35:47.122Z,2068.00
2023-05-04T03:36:47.091Z,2071.00
2023-05-04T03:37:47.067Z,2081.00
2023-05-04T03:38:47.067Z,2052.00
2023-05-04T03:39:47.103Z,2069.00
2023-05-04T03:40:47.071Z,2048.00
2023-05-04T03:41:47.034Z,2057.00
2023-05-04T03:42:47.037Z,2060.00
2023-05-04T03:43:47.065Z,2062.00
2023-05-04T03:44:47.038Z,2052.00
2023-05-04T03:45:47.156Z,2045.00
2023-05-04T03:46:47.119Z,2060.00
2023-05-04T03:47:47.155Z,2040.00
2023-05-04T03:48:47.150Z,2051.00
2023-05-04T03:49:47.151Z,2035.00
2023-05-04T03:50:47.195Z,2049.00
2023-05-04T03:51:47.213Z,2031.00
2023-05-04T03:52:47.238Z,2038.00
2023-05-04T03:53:47.245Z,2041.00
2023-05-04T03:54:47.254Z,2030.00
2023-05-04T03:55:47.285Z,2025.00
2023-05-04T03:56:47.300Z,2032.00
2023-05-04T03:57:47.362Z,2036.00
2023-05-04T03:58:47.345Z,2026.00
2023-05-04T03:59:47.358Z,2029.00
2023-05-04T04:00:47.379Z,2021.00
2023-05-04T04:01:47.407Z,2031.00
2023-05-04T04:02:47.512Z,2015.00
2023-05-04T04:03:47.489Z,2016.00
2023-05-04T04:04:47.455Z,2014.00
2023-05-04T04:05:47.472Z,2024.00
2023-05-04T04:06:47.442Z,2017.00
2023-05-04T04:07:47.511Z,2003.00
2023-05-04T04:08:47.476Z,1998.00
2023-05-04T04:09:47.498Z,2010.00
2023-05-04T04:10:47.559Z,2003.00
2023-05-04T04:11:47.568Z,2016.00
2023-05-04T04:12:47.664Z,1997.00
2023-05-04T04:13:47.667Z,2006.00
2023-05-04T04:14:47.633Z,1996.00
2023-05-04T04:15:47.671Z,2003.00
2023-05-04T04:16:47.690Z,1998.00
2023-05-04T04:17:47.855Z,2002.00
2023-05-04T04:18:47.747Z,1989.00
2023-05-04T04:19:47.764Z,1974.00
2023-05-04T04:20:47.785Z,2001.00
2023-05-04T04:21:47.823Z,1994.00
2023-05-04T04:22:47.895Z,1976.00
2023-05-04T04:23:47.920Z,1985.00
2023-05-04T04:24:47.913Z,1971.00
2023-05-04T04:25:48.016Z,1983.00
2023-05-04T04:26:48.031Z,1973.00
2023-05-04T04:27:48.020Z,1971.00
2023-05-04T04:28:48.048Z,1971.00
2023-05-04T04:29:48.072Z,1979.00
2023-05-04T04:30:48.096Z,1978.00
2023-05-04T04:31:48.352Z,1967.00
2023-05-04T04:32:48.187Z,1973.00
2023-05-04T04:33:48.167Z,1967.00
2023-05-04T04:34:48.228Z,1958.00
2023-05-04T04:35:48.248Z,1966.00
2023-05-04T04:36:48.302Z,1962.00
2023-05-04T04:37:48.317Z,1954.00
2023-05-04T04:38:48.325Z,1955.00
2023-05-04T04:39:48.359Z,1960.00
2023-05-04T04:40:48.414Z,1961.00
2023-05-04T04:41:48.414Z,1949.00
2023-05-04T04:42:48.464Z,1941.00
2023-05-04T04:43:48.478Z,1946.00
2023-05-04T04:44:48.604Z,1948.00
2023-05-04T04:45:48.528Z,1932.00
2023-05-04T04:46:48.644Z,1929.00
2023-05-04T04:47:48.626Z,1948.00
2023-05-04T04:48:48.631Z,1947.00
2023-05-04T04:49:48.697Z,1956.00
2023-05-04T04:50:48.710Z,1933.00
2023-05-04T04:51:48.747Z,1931.00
2023-05-04T04:52:48.764Z,1925.00
2023-05-04T04:53:48.822Z,1928.00
2023-05-04T04:54:48.829Z,1919.00
2023-05-04T04:55:48.924Z,1911.00
2023-05-04T04:56:48.939Z,1917.00
2023-05-04T04:57:48.996Z,1912.00
2023-05-04T04:58:48.983Z,1911.00
2023-05-04T04:59:49.044Z,1889.00
2023-05-04T05:00:49.196Z,1896.00
2023-05-04T05:01:49.124Z,1883.00
2023-05-04T05:02:49.178Z,1899.00
2023-05-04T05:03:49.238Z,1890.00
2023-05-04T05:04:49.382Z,1882.00
2023-05-04T05:05:49.244Z,1885.00
2023-05-04T05:06:49.310Z,1873.00
2023-05-04T05:07:49.322Z,1869.00
2023-05-04T05:08:49.354Z,1862.00
2023-05-04T05:09:49.377Z,1866.00
2023-05-04T05:10:49.384Z,1858.00
2023-05-04T05:11:49.468Z,1830.00
2023-05-04T05:12:49.849Z,1841.00
2023-05-04T05:13:49.457Z,1833.00
2023-05-04T05:14:49.517Z,1826.00
2023-05-04T05:15:49.485Z,1815.00
2023-05-04T05:16:49.611Z,1808.00
2023-05-04T05:17:49.659Z,1810.00
2023-05-04T05:18:49.601Z,1793.00
2023-05-04T05:19:49.609Z,1790.00
2023-05-04T05:20:49.638Z,1791.00
2023-05-04T05:21:49.645Z,1770.00
2023-05-04T05:22:49.670Z,1773.00
2023-05-04T05:23:49.745Z,1759.00
2023-05-04T05:24:49.756Z,1753.00
2023-05-04T05:25:49.788Z,1761.00
2023-05-04T05:26:49.853Z,1754.00
2023-05-04T05:27:49.890Z,1740.00
2023-05-04T05:28:49.872Z,1721.00
2023-05-04T05:29:49.881Z,1748.00
2023-05-04T05:30:50.009Z,1756.00
2023-05-04T05:31:50.093Z,1771.00
2023-05-04T05:32:50.000Z,1798.00
2023-05-04T05:33:50.073Z,1981.00
2023-05-04T05:34:50.143Z,2018.00
2023-05-04T05:35:50.396Z,2028.00
2023-05-04T05:36:50.155Z,1972.00
2023-05-04T05:37:50.864Z,1980.00
2023-05-04T05:38:50.478Z,2012.00
2023-05-04T05:39:50.240Z,1992.00
2023-05-04T05:40:50.326Z,1942.00
2023-05-04T05:41:50.383Z,1882.00
2023-05-04T05:42:50.474Z,1883.00
2023-05-04T05:43:50.421Z,1891.00
2023-05-04T05:44:50.446Z,1899.00
2023-05-04T05:45:50.538Z,1902.00
2023-05-04T05:46:50.540Z,1861.00
2023-05-04T05:47:50.597Z,1868.00
2023-05-04T05:48:50.659Z,1880.00
2023-05-04T05:49:50.738Z,1878.00
2023-05-04T05:50:50.763Z,1838.00
2023-05-04T05:51:50.852Z,1820.00
2023-05-04T05:52:50.894Z,1801.00
2023-05-04T05:53:50.960Z,1805.00
2023-05-04T05:54:50.970Z,1815.00
2023-05-04T05:55:51.081Z,1832.00
2023-05-04T05:56:51.123Z,1825.00
2023-05-04T05:57:51.849Z,1819.00
2023-05-04T05:58:51.202Z,1801.00
2023-05-04T05:59:51.445Z,1821.00
2023-05-04T06:00:51.283Z,1804.00
2023-05-04T06:01:51.352Z,1841.00
2023-05-04T06:02:51.494Z,1826.00
2023-05-04T06:03:51.655Z,1807.00
2023-05-04T06:04:51.612Z,1796.00
2023-05-04T06:05:51.619Z,1814.00
2023-05-04T06:06:51.617Z,1801.00
2023-05-04T06:07:52.393Z,1786.00
2023-05-04T06:08:51.684Z,1768.00
2023-05-04T06:09:51.763Z,1798.00
2023-05-04T06:10:51.736Z,1788.00
2023-05-04T06:11:53.344Z,1779.00
2023-05-04T06:12:51.921Z,1792.00
2023-05-04T06:13:51.796Z,1798.00
2023-05-04T06:14:51.808Z,1785.00
2023-05-04T06:15:51.919Z,1772.00
2023-05-04T06:16:51.773Z,1797.00
2023-05-04T06:17:51.799Z,1789.00
2023-05-04T06:18:51.775Z,1784.00
2023-05-04T06:19:51.744Z,1789.00
2023-05-04T06:20:51.751Z,1796.00
2023-05-04T06:21:51.844Z,1784.00
2023-05-04T06:22:51.814Z,1828.00
2023-05-04T06:23:51.713Z,1821.00
2023-05-04T06:24:52.907Z,1828.00
2023-05-04T06:25:51.697Z,1828.00
2023-05-04T06:26:51.728Z,1829.00
2023-05-04T06:27:51.689Z,1828.00
2023-05-04T06:28:51.693Z,1828.00
2023-05-04T06:29:51.761Z,1824.00
2023-05-04T06:30:51.680Z,1828.00
2023-05-04T06:31:52.401Z,1821.00
2023-05-04T06:32:51.787Z,1844.00
2023-05-04T06:33:51.788Z,1835.00
2023-05-04T06:34:51.828Z,1857.00
2023-05-04T06:35:51.813Z,1882.00
2023-05-04T06:36:51.906Z,1903.00
2023-05-04T06:37:52.453Z,1931.00
2023-05-04T06:38:52.066Z,1913.00
2023-05-04T06:39:51.964Z,1927.00
2023-05-04T06:40:52.021Z,1886.00
2023-05-04T06:41:52.012Z,1891.00
2023-05-04T06:42:52.368Z,1923.00
2023-05-04T06:43:52.023Z,1933.00
2023-05-04T06:44:52.059Z,1971.00
2023-05-04T06:45:52.154Z,1948.00
2023-05-04T06:46:52.193Z,1902.00
2023-05-04T06:47:52.289Z,1900.00
2023-05-04T06:48:52.169Z,1873.00
2023-05-04T06:49:52.245Z,1857.00
2023-05-04T06:50:52.242Z,1844.00
2023-05-04T06:51:52.290Z,1849.00
2023-05-04T06:52:52.418Z,1828.00
2023-05-04T06:53:52.393Z,1818.00
2023-05-04T06:54:52.394Z,1824.00
2023-05-04T06:55:52.721Z,1830.00
2023-05-04T06:56:52.500Z,1825.00
2023-05-04T06:57:52.499Z,1806.00
2023-05-04T06:58:52.546Z,1813.00
2023-05-04T06:59:52.615Z,1818.00
2023-05-04T07:00:52.627Z,1816.00
2023-05-04T07:01:52.653Z,1818.00
2023-05-04T07:02:52.815Z,1828.00
2023-05-04T07:03:52.876Z,1814.00
2023-05-04T07:04:52.852Z,1822.00
2023-05-04T07:05:53.389Z,1807.00
2023-05-04T07:06:52.888Z,1821.00
2023-05-04T07:07:52.944Z,1821.00
2023-05-04T07:08:52.910Z,1829.00
2023-05-04T07:09:53.063Z,1845.00
2023-05-04T07:10:53.929Z,1827.00
2023-05-04T07:11:52.994Z,1829.00
2023-05-04T07:12:53.072Z,1827.00
2023-05-04T07:13:53.089Z,1833.00
2023-05-04T07:14:53.161Z,1808.00
2023-05-04T07:15:53.165Z,1830.00
2023-05-04T07:16:53.178Z,1817.00
2023-05-04T07:17:53.284Z,1810.00
2023-05-04T07:18:53.251Z,1810.00
2023-05-04T07:19:53.372Z,1766.00
2023-05-04T07:21:01.610Z,1745.00
2023-05-04T07:21:54.368Z,1745.00
2023-05-04T07:22:53.422Z,1744.00
2023-05-04T07:23:53.313Z,1732.00
2023-05-04T07:24:53.372Z,1713.00
2023-05-04T07:25:53.802Z,1721.00
2023-05-04T07:26:53.352Z,1735.00
2023-05-04T07:27:53.318Z,1679.00
2023-05-04T07:28:53.298Z,1670.00
2023-05-04T07:29:53.510Z,1696.00
2023-05-04T07:30:53.325Z,1689.00
2023-05-04T07:31:53.312Z,1715.00
2023-05-04T07:32:53.303Z,1716.00
2023-05-04T07:33:53.332Z,1744.00
2023-05-04T07:34:54.029Z,1774.00
2023-05-04T07:35:53.399Z,1807.00
2023-05-04T07:36:53.433Z,1726.00
2023-05-04T07:37:53.983Z,1643.00
2023-05-04T07:38:53.539Z,1587.00
2023-05-04T07:39:53.537Z,1558.00
2023-05-04T07:40:53.575Z,1585.00
2023-05-04T07:41:53.628Z,1593.00
2023-05-04T07:42:54.411Z,1632.00
2023-05-04T07:43:53.708Z,1691.00
2023-05-04T07:44:53.788Z,1710.00
2023-05-04T07:45:53.865Z,1714.00
2023-05-04T07:46:54.869Z,1681.00
2023-05-04T07:47:53.911Z,1668.00
2023-05-04T07:48:53.981Z,1615.00
2023-05-04T07:49:53.970Z,1626.00
2023-05-04T07:50:54.172Z,1639.00
2023-05-04T07:51:54.009Z,1577.00
2023-05-04T07:52:54.039Z,1549.00
2023-05-04T07:53:54.076Z,1542.00
2023-05-04T07:54:54.186Z,1518.00
2023-05-04T07:55:54.160Z,1515.00
2023-05-04T07:56:54.187Z,1534.00
2023-05-04T07:57:54.284Z,1516.00
2023-05-04T07:58:54.272Z,1518.00
2023-05-04T07:59:54.321Z,1507.00
2023-05-04T08:00:54.340Z,1518.00
2023-05-04T08:01:54.489Z,1508.00
2023-05-04T08:02:54.450Z,1517.00
2023-05-04T08:03:54.519Z,1523.00
2023-05-04T08:04:54.526Z,1528.00
2023-05-04T08:05:54.549Z,1507.00
2023-05-04T08:06:54.590Z,1520.00
2023-05-04T08:07:54.650Z,1549.00
2023-05-04T08:08:54.635Z,1506.00
2023-05-04T08:09:54.663Z,1501.00
2023-05-04T08:10:57.759Z,1438.00
2023-05-04T08:11:55.677Z,1440.00
2023-05-04T08:12:54.685Z,1442.00
2023-05-04T08:13:54.901Z,1459.00
2023-05-04T08:14:54.704Z,1492.00
2023-05-04T08:15:54.668Z,1517.00
2023-05-04T08:16:54.664Z,1506.00
2023-05-04T08:17:54.677Z,1489.00
2023-05-04T08:18:54.740Z,1481.00
2023-05-04T08:19:55.462Z,1501.00
2023-05-04T08:20:54.672Z,1567.00
2023-05-04T08:21:54.677Z,1628.00
2023-05-04T08:22:54.912Z,1605.00
2023-05-04T08:23:54.596Z,1628.00
2023-05-04T08:24:54.646Z,1701.00
2023-05-04T08:25:54.592Z,1847.00
2023-05-04T08:27:06.614Z,1882.00
2023-05-04T08:27:55.895Z,1885.00
2023-05-04T08:28:54.955Z,1884.00
2023-05-04T08:29:54.599Z,1774.00
2023-05-04T08:30:54.577Z,1700.00
2023-05-04T08:31:54.616Z,1689.00
2023-05-04T08:32:54.593Z,1703.00
2023-05-04T08:33:54.560Z,1655.00
2023-05-04T08:34:54.620Z,1622.00
2023-05-04T08:35:54.538Z,1645.00
2023-05-04T08:36:54.550Z,1677.00
2023-05-04T08:37:54.926Z,1665.00
2023-05-04T08:38:54.938Z,1628.00
2023-05-04T08:39:54.496Z,1548.00
2023-05-04T08:40:54.506Z,1769.00
2023-05-04T08:41:54.502Z,2001.00
2023-05-04T08:42:54.499Z,2103.00
2023-05-04T08:43:54.569Z,2124.00
2023-05-04T08:44:54.494Z,1823.00
2023-05-04T08:45:54.469Z,1731.00
2023-05-04T08:46:54.476Z,1621.00
2023-05-04T08:47:55.008Z,1608.00
2023-05-04T08:48:54.462Z,1565.00
2023-05-04T08:49:54.423Z,1520.00
2023-05-04T08:50:54.441Z,1516.00
2023-05-04T08:51:54.440Z,1466.00
2023-05-04T08:52:54.427Z,1431.00
2023-05-04T08:53:54.439Z,1503.00
2023-05-04T08:54:54.504Z,1385.00
2023-05-04T08:55:54.489Z,1274.00
2023-05-04T08:56:54.512Z,1124.00
2023-05-04T08:57:54.932Z,1002.00
2023-05-04T08:58:54.566Z,1122.00
2023-05-04T08:59:54.537Z,1190.00
2023-05-04T09:00:54.608Z,1247.00
2023-05-04T09:01:54.680Z,1189.00
2023-05-04T09:02:54.713Z,1035.00
2023-05-04T09:03:54.719Z,954.00
2023-05-04T09:04:54.610Z,969.00
2023-05-04T09:05:54.638Z,936.00
2023-05-04T09:06:54.613Z,905.00
2023-05-04T09:07:54.707Z,993.00
2023-05-04T09:08:54.727Z,1037.00
2023-05-04T09:09:54.744Z,840.00
2023-05-04T09:10:55.432Z,792.00
2023-05-04T09:11:54.845Z,658.00
2023-05-04T09:12:54.801Z,637.00
2023-05-04T09:13:54.851Z,650.00
2023-05-04T09:14:54.836Z,558.00
2023-05-04T09:15:54.936Z,540.00
2023-05-04T09:16:54.923Z,531.00
2023-05-04T09:17:57.632Z,563.00
2023-05-04T09:18:54.909Z,606.00
2023-05-04T09:19:54.864Z,715.00
2023-05-04T09:20:54.861Z,682.00
2023-05-04T09:21:54.867Z,610.00
2023-05-04T09:22:54.885Z,530.00
2023-05-04T09:23:54.874Z,503.00
2023-05-04T09:24:54.838Z,500.00
2023-05-04T09:25:54.849Z,515.00
2023-05-04T09:26:54.838Z,517.00
2023-05-04T09:27:54.847Z,523.00
2023-05-04T09:28:54.820Z,491.00
2023-05-04T09:29:54.816Z,512.00
2023-05-04T09:30:54.957Z,536.00
2023-05-04T09:31:54.808Z,519.00
2023-05-04T09:32:54.861Z,536.00
2023-05-04T09:33:54.794Z,599.00
2023-05-04T09:34:54.811Z,637.00
2023-05-04T09:35:54.775Z,767.00
2023-05-04T09:36:54.786Z,991.00
2023-05-04T09:37:54.758Z,1205.00
2023-05-04T09:38:54.789Z,1145.00
2023-05-04T09:39:54.750Z,1276.00
2023-05-04T09:40:54.763Z,1328.00
2023-05-04T09:41:54.797Z,1318.00
2023-05-04T09:42:54.757Z,1423.00
2023-05-04T09:43:54.722Z,1389.00
2023-05-04T09:44:54.729Z,1497.00
2023-05-04T09:45:54.750Z,1434.00
2023-05-04T09:46:54.725Z,1442.00
2023-05-04T09:47:54.972Z,1369.00
2023-05-04T09:48:54.719Z,1342.00
2023-05-04T09:49:54.708Z,1336.00
2023-05-04T09:50:54.750Z,1334.00
2023-05-04T09:51:54.706Z,1473.00
2023-05-04T09:52:54.674Z,1589.00
2023-05-04T09:53:54.691Z,1569.00
2023-05-04T09:54:54.652Z,1572.00
2023-05-04T09:55:54.681Z,1624.00
2023-05-04T09:56:54.650Z,1628.00
2023-05-04T09:57:54.625Z,1721.00
2023-05-04T09:58:54.719Z,1688.00
2023-05-04T09:59:54.650Z,1699.00
2023-05-04T10:00:54.614Z,1807.00
2023-05-04T10:01:54.658Z,1869.00
2023-05-04T10:02:54.599Z,1755.00
2023-05-04T10:03:54.629Z,1787.00
2023-05-04T10:04:54.610Z,1874.00
2023-05-04T10:05:54.609Z,1839.00
2023-05-04T10:06:54.581Z,1844.00
2023-05-04T10:07:54.596Z,1835.00
2023-05-04T10:08:54.558Z,1863.00
2023-05-04T10:09:54.582Z,1813.00
2023-05-04T10:10:54.541Z,1702.00
2023-05-04T10:11:55.448Z,1615.00
2023-05-04T10:12:54.593Z,1476.00
2023-05-04T10:13:54.568Z,1438.00
2023-05-04T10:14:54.530Z,1454.00
2023-05-04T10:15:54.559Z,1413.00
2023-05-04T10:16:54.507Z,1197.00
2023-05-04T10:17:54.566Z,1199.00
2023-05-04T10:18:54.532Z,1115.00
2023-05-04T10:19:54.490Z,1170.00
2023-05-04T10:20:54.475Z,1182.00
2023-05-04T10:21:54.508Z,1311.00
2023-05-04T10:22:54.473Z,1326.00
2023-05-04T10:23:54.538Z,1429.00
2023-05-04T10:24:54.447Z,1221.00
2023-05-04T10:25:54.431Z,1174.00
2023-05-04T10:26:54.472Z,1131.00
2023-05-04T10:27:54.476Z,1493.00
2023-05-04T10:28:54.485Z,1621.00
2023-05-04T10:29:54.436Z,1542.00
2023-05-04T10:30:54.435Z,1378.00
2023-05-04T10:31:54.439Z,1306.00
2023-05-04T10:32:54.555Z,1129.00
2023-05-04T10:33:54.473Z,1216.00
2023-05-04T10:34:56.195Z,1231.00
2023-05-04T10:35:54.516Z,1236.00
2023-05-04T10:36:54.423Z,1067.00
2023-05-04T10:37:54.625Z,1057.00
2023-05-04T10:38:54.460Z,1068.00
2023-05-04T10:39:54.392Z,1284.00
2023-05-04T10:40:54.347Z,1337.00
2023-05-04T10:41:54.369Z,1423.00
2023-05-04T10:42:54.336Z,1470.00
2023-05-04T10:43:54.364Z,1404.00
2023-05-04T10:44:54.317Z,1108.00
2023-05-04T10:45:54.355Z,1154.00
2023-05-04T10:46:54.865Z,1377.00
2023-05-04T10:47:54.365Z,1400.00
2023-05-04T10:48:54.347Z,1387.00
2023-05-04T10:49:54.296Z,1203.00
2023-05-04T10:50:54.981Z,1148.00
2023-05-04T10:51:54.270Z,1182.00
2023-05-04T10:52:54.385Z,1165.00
2023-05-04T10:53:55.073Z,1260.00
2023-05-04T10:54:54.263Z,1040.00
2023-05-04T10:55:54.299Z,1129.00
2023-05-04T10:56:54.376Z,938.00
2023-05-04T10:57:54.278Z,984.00
2023-05-04T10:58:54.243Z,1150.00
2023-05-04T10:59:54.221Z,1229.00
2023-05-04T11:00:54.257Z,1350.00
2023-05-04T11:01:54.210Z,1449.00
2023-05-04T11:02:54.231Z,1430.00
2023-05-04T11:03:54.275Z,1279.00
2023-05-04T11:04:54.182Z,1170.00
2023-05-04T11:05:54.293Z,1276.00
2023-05-04T11:06:54.177Z,1307.00
2023-05-04T11:07:54.159Z,1425.00
2023-05-04T11:08:54.273Z,1509.00
2023-05-04T11:09:54.154Z,1492.00
2023-05-04T11:10:54.199Z,1346.00
2023-05-04T11:11:54.156Z,1396.00
2023-05-04T11:12:54.186Z,1453.00
2023-05-04T11:13:54.149Z,1390.00
2023-05-04T11:14:54.107Z,1352.00
2023-05-04T11:15:54.099Z,1392.00
2023-05-04T11:16:54.193Z,1485.00
2023-05-04T11:17:54.137Z,1539.00
2023-05-04T11:18:54.145Z,1413.00
2023-05-04T11:19:54.110Z,1286.00
2023-05-04T11:20:54.104Z,1434.00
2023-05-04T11:21:54.133Z,1504.00
2023-05-04T11:22:54.122Z,1608.00
2023-05-04T11:23:54.490Z,1703.00
2023-05-04T11:25:02.746Z,1713.00
2023-05-04T11:25:55.098Z,1683.00
2023-05-04T11:26:54.075Z,1664.00
2023-05-04T11:27:54.057Z,1657.00
2023-05-04T11:28:54.065Z,1716.00
2023-05-04T11:29:54.019Z,1846.00
2023-05-04T11:30:56.181Z,1964.00
2023-05-04T11:31:54.181Z,2036.00
2023-05-04T11:32:54.132Z,2042.00
2023-05-04T11:33:54.001Z,1964.00
2023-05-04T11:34:54.000Z,1921.00
2023-05-04T11:35:54.005Z,1881.00
2023-05-04T11:36:53.973Z,1831.00
2023-05-04T11:37:53.965Z,1753.00
2023-05-04T11:38:54.487Z,1622.00
2023-05-04T11:39:53.977Z,1661.00
2023-05-04T11:40:53.967Z,1617.00
2023-05-04T11:41:53.949Z,1564.00
2023-05-04T11:42:55.511Z,1582.00
2023-05-04T11:43:54.498Z,1568.00
2023-05-04T11:44:53.959Z,1511.00
2023-05-04T11:45:53.943Z,1503.00
2023-05-04T11:46:53.963Z,1383.00
2023-05-04T11:47:53.978Z,1313.00
2023-05-04T11:48:54.015Z,1258.00
2023-05-04T11:49:53.891Z,1326.00
2023-05-04T11:50:53.925Z,1300.00
2023-05-04T11:51:53.873Z,1299.00
2023-05-04T11:52:53.859Z,1353.00
2023-05-04T11:53:53.908Z,1332.00
2023-05-04T11:54:55.653Z,1185.00
2023-05-04T11:55:53.964Z,1179.00
2023-05-04T11:56:53.827Z,1230.00
2023-05-04T11:57:53.840Z,1233.00
2023-05-04T11:58:53.848Z,1370.00
2023-05-04T11:59:53.827Z,1200.00
2023-05-04T12:00:55.840Z,1245.00
2023-05-04T12:01:53.795Z,1330.00
2023-05-04T12:02:53.899Z,1337.00
2023-05-04T12:03:54.469Z,1411.00
2023-05-04T12:04:53.810Z,1448.00
2023-05-04T12:05:53.801Z,1480.00
2023-05-04T12:06:53.755Z,1586.00